KLM3CM EHAM-EFHK
Flight info
| Callsign | KLM3CM |
|---|---|
| Flight time | N/A |
| Altitude | 39000 |
| Route | ANDIK N873 JUIST DCT DOSUR DCT RASMU DCT ROGMI DCT ALAMI DCT OKEVU DCT EVADI Y370 DIVAM |
| Aircraft | A20N/M-SDE2E3FGHIRWXY/LB1 |
Departure
| Time | 2026-04-29 11:52 |
|---|---|
| Airport | Amsterdam Airport Schiphol (EHAM) |
Arrival
| Time | N/A |
|---|---|
| Airport | Helsinki Vantaa Airport (EFHK) |
| Time | Latitude | Longitude | Altitude | Speed | Heading |
|---|---|---|---|---|---|
| 2026-04-29 11:24 | 52.31000 | 4.77239 | 2 ft | 0 kts | 183° |
| 2026-04-29 11:30 | 52.31020 | 4.77241 | 2 ft | 5 kts | 182° |
| 2026-04-29 11:30 | 52.31053 | 4.77242 | 2 ft | 4 kts | 175° |
| 2026-04-29 11:30 | 52.31067 | 4.77235 | 2 ft | 2 kts | 130° |
| 2026-04-29 11:31 | 52.31071 | 4.77219 | 2 ft | 2 kts | 95° |
| 2026-04-29 11:31 | 52.31072 | 4.77202 | 2 ft | 0 kts | 90° |
| 2026-04-29 11:35 | 52.31072 | 4.77204 | 2 ft | 1 kts | 90° |
| 2026-04-29 11:36 | 52.31072 | 4.77233 | 2 ft | 4 kts | 90° |
| 2026-04-29 11:36 | 52.31072 | 4.77303 | 2 ft | 8 kts | 90° |
| 2026-04-29 11:36 | 52.31071 | 4.77407 | 2 ft | 11 kts | 87° |
| 2026-04-29 11:36 | 52.31116 | 4.77500 | 2 ft | 12 kts | 31° |
| 2026-04-29 11:37 | 52.31172 | 4.77610 | 2 ft | 13 kts | 43° |
| 2026-04-29 11:37 | 52.31267 | 4.77639 | 2 ft | 15 kts | 1° |
| 2026-04-29 11:37 | 52.31380 | 4.77655 | 2 ft | 17 kts | 1° |
| 2026-04-29 11:37 | 52.31496 | 4.77579 | 2 ft | 20 kts | 317° |
| 2026-04-29 11:38 | 52.31576 | 4.77377 | 2 ft | 23 kts | 276° |
| 2026-04-29 11:38 | 52.31567 | 4.77089 | 2 ft | 27 kts | 266° |
| 2026-04-29 11:38 | 52.31556 | 4.76758 | 2 ft | 31 kts | 267° |
| 2026-04-29 11:38 | 52.31547 | 4.76436 | 3 ft | 25 kts | 266° |
| 2026-04-29 11:39 | 52.31539 | 4.76218 | 2 ft | 21 kts | 266° |
| 2026-04-29 11:39 | 52.31530 | 4.76000 | 2 ft | 18 kts | 266° |
| 2026-04-29 11:39 | 52.31526 | 4.75875 | 2 ft | 11 kts | 266° |
| 2026-04-29 11:39 | 52.31521 | 4.75729 | 2 ft | 15 kts | 267° |
| 2026-04-29 11:40 | 52.31515 | 4.75529 | 2 ft | 20 kts | 267° |
| 2026-04-29 11:40 | 52.31507 | 4.75325 | 2 ft | 16 kts | 266° |
| 2026-04-29 11:40 | 52.31499 | 4.75118 | 2 ft | 20 kts | 266° |
| 2026-04-29 11:40 | 52.31494 | 4.74930 | 2 ft | 16 kts | 267° |
| 2026-04-29 11:41 | 52.31487 | 4.74719 | 2 ft | 20 kts | 267° |
| 2026-04-29 11:41 | 52.31481 | 4.74497 | 2 ft | 13 kts | 267° |
| 2026-04-29 11:41 | 52.31478 | 4.74367 | 2 ft | 13 kts | 274° |
| 2026-04-29 11:41 | 52.31550 | 4.74292 | 2 ft | 15 kts | 5° |
| 2026-04-29 11:42 | 52.31666 | 4.74307 | 2 ft | 18 kts | 4° |
| 2026-04-29 11:42 | 52.31798 | 4.74322 | 2 ft | 20 kts | 4° |
| 2026-04-29 11:42 | 52.31946 | 4.74337 | 2 ft | 22 kts | 3° |
| 2026-04-29 11:42 | 52.32032 | 4.74177 | 2 ft | 24 kts | 274° |
| 2026-04-29 11:43 | 52.32043 | 4.73884 | 2 ft | 28 kts | 274° |
| 2026-04-29 11:43 | 52.32050 | 4.73644 | 2 ft | 16 kts | 273° |
| 2026-04-29 11:43 | 52.32052 | 4.73559 | 4 ft | 9 kts | 273° |
| 2026-04-29 11:43 | 52.32063 | 4.73431 | 2 ft | 14 kts | 288° |
| 2026-04-29 11:44 | 52.32130 | 4.73293 | 2 ft | 18 kts | 319° |
| 2026-04-29 11:44 | 52.32224 | 4.73162 | 2 ft | 17 kts | 319° |
| 2026-04-29 11:44 | 52.32303 | 4.73051 | 2 ft | 15 kts | 319° |
| 2026-04-29 11:44 | 52.32389 | 4.72929 | 2 ft | 18 kts | 319° |
| 2026-04-29 11:45 | 52.32493 | 4.72784 | 2 ft | 20 kts | 320° |
| 2026-04-29 11:45 | 52.32607 | 4.72629 | 2 ft | 21 kts | 319° |
| 2026-04-29 11:45 | 52.32708 | 4.72467 | 2 ft | 21 kts | 311° |
| 2026-04-29 11:45 | 52.32770 | 4.72352 | 2 ft | 10 kts | 311° |
| 2026-04-29 11:46 | 52.32827 | 4.72246 | 2 ft | 15 kts | 311° |
| 2026-04-29 11:46 | 52.32903 | 4.72103 | 2 ft | 18 kts | 311° |
| 2026-04-29 11:46 | 52.32986 | 4.71951 | 2 ft | 16 kts | 312° |
| 2026-04-29 11:46 | 52.33062 | 4.71813 | 2 ft | 16 kts | 311° |
| 2026-04-29 11:47 | 52.33117 | 4.71711 | 2 ft | 11 kts | 311° |
| 2026-04-29 11:47 | 52.33148 | 4.71596 | 3 ft | 11 kts | 271° |
| 2026-04-29 11:47 | 52.33131 | 4.71497 | 2 ft | 6 kts | 256° |
| 2026-04-29 11:47 | 52.33140 | 4.71406 | 2 ft | 10 kts | 298° |
| 2026-04-29 11:48 | 52.33197 | 4.71297 | 2 ft | 15 kts | 312° |
| 2026-04-29 11:48 | 52.33261 | 4.71178 | 2 ft | 0 kts | 301° |
| 2026-04-29 11:48 | 52.33262 | 4.71178 | 2 ft | 0 kts | 312° |
| 2026-04-29 11:50 | 52.33263 | 4.71177 | 2 ft | 1 kts | 312° |
| 2026-04-29 11:50 | 52.33281 | 4.71144 | 2 ft | 7 kts | 312° |
| 2026-04-29 11:50 | 52.33324 | 4.71065 | 1 ft | 12 kts | 312° |
| 2026-04-29 11:50 | 52.33401 | 4.70963 | 1 ft | 16 kts | 334° |
| 2026-04-29 11:51 | 52.33474 | 4.70943 | 1 ft | 0 kts | 2° |
| 2026-04-29 11:51 | 52.33506 | 4.70945 | 1 ft | 16 kts | 2° |
| 2026-04-29 11:51 | 52.33838 | 4.70978 | 2 ft | 82 kts | 2° |
| 2026-04-29 11:51 | 52.34626 | 4.71073 | 2 ft | 143 kts | 2° |
| 2026-04-29 11:52 | 52.35747 | 4.71154 | 247 ft | 166 kts | 8° |
| 2026-04-29 11:52 | 52.36863 | 4.71252 | 1159 ft | 154 kts | 11° |
| 2026-04-29 11:52 | 52.37930 | 4.71348 | 1946 ft | 160 kts | 11° |
| 2026-04-29 11:52 | 52.39143 | 4.71491 | 2340 ft | 188 kts | 11° |
| 2026-04-29 11:53 | 52.40516 | 4.71636 | 2724 ft | 206 kts | 10° |
| 2026-04-29 11:53 | 52.41984 | 4.71776 | 3143 ft | 223 kts | 10° |
| 2026-04-29 11:53 | 52.43583 | 4.71923 | 3600 ft | 235 kts | 10° |
| 2026-04-29 11:53 | 52.45243 | 4.72076 | 4106 ft | 245 kts | 10° |
| 2026-04-29 11:54 | 52.46996 | 4.72246 | 4491 ft | 258 kts | 9° |
| 2026-04-29 11:54 | 52.48801 | 4.72414 | 5137 ft | 262 kts | 9° |
| 2026-04-29 11:54 | 52.50628 | 4.72585 | 5804 ft | 264 kts | 9° |
| 2026-04-29 11:54 | 52.52495 | 4.72762 | 6245 ft | 275 kts | 8° |
| 2026-04-29 11:55 | 52.54429 | 4.73284 | 6364 ft | 289 kts | 27° |
| 2026-04-29 11:55 | 52.55941 | 4.75349 | 6831 ft | 282 kts | 60° |
| 2026-04-29 11:55 | 52.56505 | 4.78290 | 7828 ft | 271 kts | 82° |
| 2026-04-29 11:55 | 52.56726 | 4.81303 | 9098 ft | 263 kts | 82° |
| 2026-04-29 11:56 | 52.57016 | 4.84276 | 10153 ft | 264 kts | 79° |
| 2026-04-29 11:56 | 52.57410 | 4.87260 | 10874 ft | 275 kts | 76° |
| 2026-04-29 11:56 | 52.57914 | 4.90447 | 11248 ft | 299 kts | 75° |
| 2026-04-29 11:56 | 52.58501 | 4.93874 | 11572 ft | 322 kts | 75° |
| 2026-04-29 11:57 | 52.59413 | 4.97316 | 12008 ft | 339 kts | 56° |
| 2026-04-29 11:57 | 52.60913 | 5.00384 | 12748 ft | 347 kts | 51° |
| 2026-04-29 11:57 | 52.62485 | 5.03424 | 13576 ft | 351 kts | 51° |
| 2026-04-29 11:57 | 52.64041 | 5.06491 | 14334 ft | 356 kts | 51° |
| 2026-04-29 11:58 | 52.65547 | 5.09533 | 15031 ft | 360 kts | 52° |
| 2026-04-29 11:58 | 52.67127 | 5.12781 | 15754 ft | 364 kts | 52° |
| 2026-04-29 11:58 | 52.68709 | 5.16065 | 16478 ft | 368 kts | 52° |
| 2026-04-29 11:58 | 52.70306 | 5.19403 | 17195 ft | 372 kts | 52° |
| 2026-04-29 11:59 | 52.71913 | 5.22772 | 17922 ft | 375 kts | 52° |
| 2026-04-29 11:59 | 52.73507 | 5.26126 | 19008 ft | 366 kts | 52° |
| 2026-04-29 11:59 | 52.75054 | 5.29386 | 20146 ft | 354 kts | 52° |
| 2026-04-29 11:59 | 52.76544 | 5.32528 | 21309 ft | 341 kts | 52° |
| 2026-04-29 12:00 | 52.77977 | 5.35551 | 22501 ft | 328 kts | 53° |
| 2026-04-29 12:00 | 52.79336 | 5.38425 | 23680 ft | 315 kts | 53° |
| 2026-04-29 12:00 | 52.80653 | 5.41214 | 24689 ft | 301 kts | 53° |
| 2026-04-29 12:00 | 52.81911 | 5.43883 | 25608 ft | 288 kts | 53° |
| 2026-04-29 12:01 | 52.83129 | 5.46472 | 26327 ft | 283 kts | 53° |
| 2026-04-29 12:01 | 52.84333 | 5.49037 | 26848 ft | 283 kts | 54° |
| 2026-04-29 12:01 | 52.85540 | 5.51614 | 27281 ft | 285 kts | 54° |
| 2026-04-29 12:01 | 52.86757 | 5.54214 | 27710 ft | 287 kts | 54° |
| 2026-04-29 12:02 | 52.87985 | 5.56839 | 28122 ft | 289 kts | 54° |
| 2026-04-29 12:02 | 52.89219 | 5.59480 | 28542 ft | 291 kts | 54° |
| 2026-04-29 12:02 | 52.90459 | 5.62132 | 28941 ft | 293 kts | 54° |
| 2026-04-29 12:02 | 52.91694 | 5.64777 | 29324 ft | 295 kts | 54° |
| 2026-04-29 12:03 | 52.92954 | 5.67477 | 29688 ft | 297 kts | 54° |
| 2026-04-29 12:03 | 52.94220 | 5.70194 | 30067 ft | 299 kts | 54° |
| 2026-04-29 12:03 | 52.95498 | 5.72938 | 30434 ft | 301 kts | 54° |
| 2026-04-29 12:03 | 52.96782 | 5.75699 | 30737 ft | 303 kts | 54° |
| 2026-04-29 12:04 | 52.98070 | 5.78472 | 31032 ft | 305 kts | 54° |
| 2026-04-29 12:04 | 52.99370 | 5.81272 | 31324 ft | 306 kts | 54° |
| 2026-04-29 12:04 | 53.00670 | 5.84077 | 31622 ft | 308 kts | 54° |
| 2026-04-29 12:04 | 53.01976 | 5.86899 | 31901 ft | 310 kts | 54° |
| 2026-04-29 12:05 | 53.03279 | 5.89715 | 32176 ft | 311 kts | 54° |
| 2026-04-29 12:05 | 53.04599 | 5.92572 | 32461 ft | 313 kts | 54° |
| 2026-04-29 12:05 | 53.05926 | 5.95450 | 32699 ft | 315 kts | 54° |
| 2026-04-29 12:05 | 53.07264 | 5.98352 | 32960 ft | 317 kts | 54° |
| 2026-04-29 12:06 | 53.08603 | 6.01261 | 33216 ft | 318 kts | 53° |
| 2026-04-29 12:06 | 53.09954 | 6.04198 | 33465 ft | 320 kts | 54° |
| 2026-04-29 12:06 | 53.11306 | 6.07144 | 33709 ft | 321 kts | 54° |
| 2026-04-29 12:06 | 53.12650 | 6.10073 | 33948 ft | 323 kts | 53° |
| 2026-04-29 12:07 | 53.14015 | 6.13052 | 34182 ft | 324 kts | 53° |
| 2026-04-29 12:07 | 53.15385 | 6.16048 | 34414 ft | 326 kts | 53° |
| 2026-04-29 12:07 | 53.16759 | 6.19054 | 34606 ft | 328 kts | 53° |
| 2026-04-29 12:07 | 53.18143 | 6.22087 | 34778 ft | 329 kts | 53° |
| 2026-04-29 12:08 | 53.19532 | 6.25133 | 34971 ft | 331 kts | 53° |
| 2026-04-29 12:08 | 53.20929 | 6.28200 | 35146 ft | 332 kts | 53° |
| 2026-04-29 12:08 | 53.22326 | 6.31271 | 35314 ft | 334 kts | 53° |
| 2026-04-29 12:08 | 53.23737 | 6.34377 | 35482 ft | 336 kts | 53° |
| 2026-04-29 12:09 | 53.25130 | 6.37447 | 35645 ft | 337 kts | 53° |
| 2026-04-29 12:09 | 53.26550 | 6.40580 | 35805 ft | 339 kts | 53° |
| 2026-04-29 12:09 | 53.27977 | 6.43733 | 35970 ft | 340 kts | 53° |
| 2026-04-29 12:09 | 53.29405 | 6.46893 | 36135 ft | 342 kts | 53° |
| 2026-04-29 12:10 | 53.30839 | 6.50068 | 36295 ft | 343 kts | 52° |
| 2026-04-29 12:10 | 53.32279 | 6.53262 | 36439 ft | 345 kts | 52° |
| 2026-04-29 12:10 | 53.33722 | 6.56466 | 36581 ft | 346 kts | 52° |
| 2026-04-29 12:10 | 53.35272 | 6.59558 | 36724 ft | 347 kts | 47° |
| 2026-04-29 12:11 | 53.36973 | 6.62443 | 36874 ft | 349 kts | 44° |
| 2026-04-29 12:11 | 53.38724 | 6.65180 | 37010 ft | 350 kts | 43° |
| 2026-04-29 12:11 | 53.40536 | 6.67910 | 37158 ft | 351 kts | 42° |
| 2026-04-29 12:11 | 53.42365 | 6.70641 | 37301 ft | 353 kts | 42° |
| 2026-04-29 12:12 | 53.44193 | 6.73385 | 37441 ft | 354 kts | 42° |
| 2026-04-29 12:12 | 53.46028 | 6.76165 | 37576 ft | 355 kts | 42° |
| 2026-04-29 12:12 | 53.47857 | 6.78961 | 37707 ft | 356 kts | 42° |
| 2026-04-29 12:12 | 53.49681 | 6.81769 | 37835 ft | 357 kts | 42° |
| 2026-04-29 12:13 | 53.51493 | 6.84571 | 37958 ft | 359 kts | 42° |
| 2026-04-29 12:13 | 53.53351 | 6.87453 | 38094 ft | 360 kts | 42° |
| 2026-04-29 12:13 | 53.55168 | 6.90274 | 38217 ft | 361 kts | 42° |
| 2026-04-29 12:13 | 53.56996 | 6.93173 | 38344 ft | 362 kts | 43° |
| 2026-04-29 12:14 | 53.58800 | 6.96138 | 38456 ft | 363 kts | 44° |
| 2026-04-29 12:14 | 53.60590 | 6.99141 | 38567 ft | 364 kts | 44° |
| 2026-04-29 12:14 | 53.62380 | 7.02172 | 38690 ft | 365 kts | 44° |
| 2026-04-29 12:14 | 53.64177 | 7.05219 | 38793 ft | 366 kts | 44° |
| 2026-04-29 12:15 | 53.65973 | 7.08265 | 38904 ft | 368 kts | 44° |
| 2026-04-29 12:15 | 53.67781 | 7.11325 | 39021 ft | 368 kts | 44° |
| 2026-04-29 12:15 | 53.69594 | 7.14393 | 39124 ft | 369 kts | 44° |
| 2026-04-29 12:15 | 53.71409 | 7.17463 | 39206 ft | 371 kts | 44° |
| 2026-04-29 12:16 | 53.75040 | 7.23612 | 39346 ft | 373 kts | 44° |
| 2026-04-29 12:16 | 53.78719 | 7.29856 | 39464 ft | 377 kts | 44° |
| 2026-04-29 12:17 | 53.82446 | 7.36199 | 39471 ft | 383 kts | 44° |
| 2026-04-29 12:17 | 53.86232 | 7.42662 | 39476 ft | 390 kts | 44° |
| 2026-04-29 12:18 | 53.90080 | 7.49249 | 39480 ft | 396 kts | 44° |
| 2026-04-29 12:18 | 53.93959 | 7.55909 | 39481 ft | 401 kts | 44° |
| 2026-04-29 12:19 | 53.97865 | 7.62636 | 39480 ft | 399 kts | 44° |
| 2026-04-29 12:19 | 54.01759 | 7.69360 | 39482 ft | 399 kts | 44° |
| 2026-04-29 12:20 | 54.05650 | 7.76097 | 39482 ft | 399 kts | 44° |
| 2026-04-29 12:20 | 54.09505 | 7.82790 | 39482 ft | 399 kts | 44° |
| 2026-04-29 12:21 | 54.13390 | 7.89555 | 39480 ft | 399 kts | 44° |
| 2026-04-29 12:21 | 54.17274 | 7.96336 | 39480 ft | 399 kts | 44° |
| 2026-04-29 12:22 | 54.21148 | 8.03120 | 39483 ft | 399 kts | 44° |
| 2026-04-29 12:22 | 54.24996 | 8.09877 | 39483 ft | 399 kts | 44° |
| 2026-04-29 12:23 | 54.28871 | 8.16702 | 39482 ft | 399 kts | 44° |
| 2026-04-29 12:23 | 54.32733 | 8.23524 | 39481 ft | 399 kts | 44° |
| 2026-04-29 12:24 | 54.36597 | 8.30367 | 39481 ft | 400 kts | 44° |
| 2026-04-29 12:24 | 54.40435 | 8.37186 | 39479 ft | 400 kts | 44° |
| 2026-04-29 12:25 | 54.44298 | 8.44068 | 39479 ft | 400 kts | 44° |
| 2026-04-29 12:26 | 54.50080 | 8.54407 | 39472 ft | 400 kts | 44° |
| 2026-04-29 12:26 | 54.53934 | 8.61321 | 39478 ft | 400 kts | 44° |
| 2026-04-29 12:27 | 54.57768 | 8.68222 | 39482 ft | 404 kts | 44° |
| 2026-04-29 12:27 | 54.61684 | 8.75287 | 39477 ft | 411 kts | 44° |
| 2026-04-29 12:28 | 54.65639 | 8.82446 | 39476 ft | 413 kts | 44° |
| 2026-04-29 12:28 | 54.69592 | 8.89627 | 39467 ft | 411 kts | 44° |
| 2026-04-29 12:29 | 54.73505 | 8.96758 | 39476 ft | 411 kts | 44° |
| 2026-04-29 12:29 | 54.77438 | 9.03942 | 39480 ft | 411 kts | 44° |
| 2026-04-29 12:30 | 54.81365 | 9.11138 | 39468 ft | 411 kts | 44° |
| 2026-04-29 12:30 | 54.85282 | 9.18363 | 39467 ft | 411 kts | 45° |
| 2026-04-29 12:31 | 54.88927 | 9.25954 | 39468 ft | 413 kts | 49° |
| 2026-04-29 12:31 | 54.92434 | 9.33850 | 39474 ft | 413 kts | 49° |
| 2026-04-29 12:32 | 54.95927 | 9.41779 | 39486 ft | 413 kts | 49° |
| 2026-04-29 12:32 | 54.99433 | 9.49684 | 39481 ft | 412 kts | 49° |
| 2026-04-29 12:33 | 55.02944 | 9.57581 | 39482 ft | 412 kts | 49° |
| 2026-04-29 12:33 | 55.06426 | 9.65429 | 39482 ft | 412 kts | 49° |
| 2026-04-29 12:34 | 55.09927 | 9.73345 | 39482 ft | 412 kts | 49° |
| 2026-04-29 12:34 | 55.13422 | 9.81277 | 39482 ft | 412 kts | 49° |
| 2026-04-29 12:35 | 55.16908 | 9.89215 | 39483 ft | 412 kts | 49° |
| 2026-04-29 12:35 | 55.20366 | 9.97115 | 39486 ft | 412 kts | 49° |
| 2026-04-29 12:36 | 55.23841 | 10.05080 | 39483 ft | 412 kts | 49° |
| 2026-04-29 12:36 | 55.27310 | 10.13055 | 39483 ft | 412 kts | 49° |
| 2026-04-29 12:37 | 55.30779 | 10.21057 | 39482 ft | 411 kts | 49° |
| 2026-04-29 12:37 | 55.33653 | 10.27708 | 39483 ft | 411 kts | 49° |
| 2026-04-29 12:38 | 55.37668 | 10.37027 | 39483 ft | 411 kts | 49° |
| 2026-04-29 12:38 | 55.41116 | 10.45061 | 39484 ft | 411 kts | 49° |
| 2026-04-29 12:39 | 55.44560 | 10.53109 | 39483 ft | 411 kts | 49° |
| 2026-04-29 12:39 | 55.47993 | 10.61158 | 39486 ft | 411 kts | 49° |
| 2026-04-29 12:40 | 55.51400 | 10.69173 | 39486 ft | 411 kts | 49° |
| 2026-04-29 12:40 | 55.54818 | 10.77241 | 39489 ft | 411 kts | 50° |
| 2026-04-29 12:41 | 55.58237 | 10.85336 | 39490 ft | 411 kts | 50° |
| 2026-04-29 12:41 | 55.61648 | 10.93440 | 39491 ft | 411 kts | 50° |
| 2026-04-29 12:42 | 55.64476 | 11.00179 | 39493 ft | 411 kts | 50° |
| 2026-04-29 12:42 | 55.68428 | 11.09627 | 39488 ft | 411 kts | 50° |
| 2026-04-29 12:43 | 55.71820 | 11.17767 | 39484 ft | 411 kts | 50° |
| 2026-04-29 12:43 | 55.75209 | 11.25928 | 39485 ft | 411 kts | 50° |
| 2026-04-29 12:44 | 55.78569 | 11.34043 | 39485 ft | 410 kts | 50° |
| 2026-04-29 12:44 | 55.81942 | 11.42217 | 39486 ft | 410 kts | 50° |
| 2026-04-29 12:45 | 55.85317 | 11.50423 | 39483 ft | 411 kts | 50° |
| 2026-04-29 12:45 | 55.88684 | 11.58638 | 39485 ft | 411 kts | 50° |
| 2026-04-29 12:46 | 55.92026 | 11.66818 | 39485 ft | 411 kts | 50° |
| 2026-04-29 12:46 | 55.95384 | 11.75068 | 39482 ft | 411 kts | 50° |
| 2026-04-29 12:47 | 55.98742 | 11.83344 | 39480 ft | 411 kts | 50° |
| 2026-04-29 12:47 | 56.02091 | 11.91625 | 39481 ft | 411 kts | 50° |
| 2026-04-29 12:48 | 56.05413 | 11.99869 | 39481 ft | 411 kts | 50° |
| 2026-04-29 12:48 | 56.08752 | 12.08183 | 39487 ft | 411 kts | 50° |
| 2026-04-29 12:49 | 56.12088 | 12.16516 | 39483 ft | 411 kts | 50° |
| 2026-04-29 12:49 | 56.15418 | 12.24865 | 39482 ft | 412 kts | 50° |
| 2026-04-29 12:50 | 56.17619 | 12.30398 | 39480 ft | 412 kts | 50° |
| 2026-04-29 12:50 | 56.22040 | 12.41550 | 39481 ft | 412 kts | 51° |
| 2026-04-29 12:51 | 56.25359 | 12.49955 | 39480 ft | 412 kts | 51° |
| 2026-04-29 12:51 | 56.28629 | 12.58266 | 39480 ft | 412 kts | 51° |
| 2026-04-29 12:52 | 56.31936 | 12.66700 | 39484 ft | 412 kts | 51° |
| 2026-04-29 12:52 | 56.35239 | 12.75153 | 39483 ft | 412 kts | 51° |
| 2026-04-29 12:53 | 56.38536 | 12.83620 | 39482 ft | 413 kts | 51° |
| 2026-04-29 12:53 | 56.41806 | 12.92045 | 39484 ft | 413 kts | 51° |
| 2026-04-29 12:54 | 56.45093 | 13.00546 | 39475 ft | 413 kts | 51° |
| 2026-04-29 12:54 | 56.48379 | 13.09072 | 39472 ft | 413 kts | 51° |
| 2026-04-29 12:55 | 56.51653 | 13.17599 | 39457 ft | 413 kts | 51° |
| 2026-04-29 12:55 | 56.54902 | 13.26088 | 39453 ft | 413 kts | 51° |
| 2026-04-29 12:56 | 56.58166 | 13.34647 | 39446 ft | 413 kts | 51° |
| 2026-04-29 12:56 | 56.61427 | 13.43230 | 39439 ft | 413 kts | 51° |
| 2026-04-29 12:57 | 56.64682 | 13.51827 | 39433 ft | 413 kts | 51° |
| 2026-04-29 12:57 | 56.67910 | 13.60381 | 39431 ft | 413 kts | 51° |
| 2026-04-29 12:58 | 56.71151 | 13.69002 | 39424 ft | 413 kts | 51° |
| 2026-04-29 12:58 | 56.74392 | 13.77652 | 39423 ft | 413 kts | 52° |
| 2026-04-29 12:59 | 56.77624 | 13.86308 | 39425 ft | 413 kts | 52° |
| 2026-04-29 12:59 | 56.80831 | 13.94922 | 39420 ft | 413 kts | 52° |
| 2026-04-29 13:00 | 56.84057 | 14.03618 | 39419 ft | 413 kts | 52° |
| 2026-04-29 13:00 | 56.87275 | 14.12323 | 39416 ft | 413 kts | 52° |
| 2026-04-29 13:01 | 56.90488 | 14.21047 | 39411 ft | 414 kts | 52° |
| 2026-04-29 13:01 | 56.93674 | 14.29730 | 39409 ft | 414 kts | 52° |
| 2026-04-29 13:02 | 56.96878 | 14.38491 | 39406 ft | 414 kts | 52° |
| 2026-04-29 13:02 | 57.00073 | 14.47262 | 39402 ft | 414 kts | 52° |
| 2026-04-29 13:03 | 57.03264 | 14.56052 | 39407 ft | 414 kts | 52° |
| 2026-04-29 13:03 | 57.06430 | 14.64804 | 39402 ft | 414 kts | 52° |
| 2026-04-29 13:04 | 57.09613 | 14.73638 | 39399 ft | 414 kts | 52° |
| 2026-04-29 13:04 | 57.10547 | 14.76236 | 39381 ft | 414 kts | 52° |
| 2026-04-29 13:05 | 57.13559 | 14.84632 | 39395 ft | 414 kts | 52° |
| 2026-04-29 13:05 | 57.16731 | 14.93507 | 39395 ft | 415 kts | 52° |
| 2026-04-29 13:06 | 57.19877 | 15.02341 | 39395 ft | 415 kts | 53° |
| 2026-04-29 13:06 | 57.23038 | 15.11253 | 39397 ft | 415 kts | 53° |
| 2026-04-29 13:07 | 57.26190 | 15.20170 | 39396 ft | 415 kts | 53° |
| 2026-04-29 13:07 | 57.29337 | 15.29108 | 39397 ft | 415 kts | 53° |
| 2026-04-29 13:08 | 57.32458 | 15.38000 | 39397 ft | 415 kts | 53° |
| 2026-04-29 13:08 | 57.35598 | 15.46984 | 39397 ft | 415 kts | 53° |
| 2026-04-29 13:09 | 57.38727 | 15.55972 | 39397 ft | 416 kts | 53° |
| 2026-04-29 13:09 | 57.41858 | 15.64995 | 39396 ft | 416 kts | 53° |
| 2026-04-29 13:10 | 57.44962 | 15.73977 | 39401 ft | 416 kts | 53° |
| 2026-04-29 13:10 | 57.48082 | 15.83037 | 39404 ft | 416 kts | 53° |
| 2026-04-29 13:11 | 57.51194 | 15.92112 | 39405 ft | 417 kts | 53° |
| 2026-04-29 13:11 | 57.54305 | 16.01215 | 39411 ft | 417 kts | 53° |
| 2026-04-29 13:12 | 57.57390 | 16.10277 | 39408 ft | 417 kts | 53° |
| 2026-04-29 13:12 | 57.60491 | 16.19421 | 39410 ft | 417 kts | 53° |
| 2026-04-29 13:13 | 57.63586 | 16.28583 | 39421 ft | 418 kts | 53° |
| 2026-04-29 13:13 | 57.66674 | 16.37760 | 39421 ft | 418 kts | 53° |
| 2026-04-29 13:14 | 57.69760 | 16.46965 | 39422 ft | 418 kts | 53° |
| 2026-04-29 13:14 | 57.72821 | 16.56132 | 39426 ft | 418 kts | 54° |
| 2026-04-29 13:15 | 57.75896 | 16.65374 | 39427 ft | 419 kts | 54° |
| 2026-04-29 13:15 | 57.78967 | 16.74645 | 39429 ft | 419 kts | 54° |
| 2026-04-29 13:16 | 57.82035 | 16.83939 | 39431 ft | 419 kts | 54° |
| 2026-04-29 13:16 | 57.85075 | 16.93185 | 39432 ft | 419 kts | 54° |
| 2026-04-29 13:17 | 57.88128 | 17.02510 | 39432 ft | 419 kts | 54° |
| 2026-04-29 13:17 | 57.91179 | 17.11863 | 39434 ft | 420 kts | 54° |
| 2026-04-29 13:18 | 57.94223 | 17.21232 | 39433 ft | 420 kts | 54° |
| 2026-04-29 13:18 | 57.97242 | 17.30559 | 39431 ft | 420 kts | 54° |
| 2026-04-29 13:19 | 58.00275 | 17.39968 | 39433 ft | 420 kts | 54° |
| 2026-04-29 13:19 | 58.03303 | 17.49398 | 39433 ft | 420 kts | 54° |
| 2026-04-29 13:20 | 58.05816 | 17.57253 | 39438 ft | 421 kts | 54° |
| 2026-04-29 13:20 | 58.09322 | 17.68258 | 39430 ft | 421 kts | 54° |
| 2026-04-29 13:21 | 58.12334 | 17.77753 | 39432 ft | 421 kts | 54° |
| 2026-04-29 13:21 | 58.15339 | 17.87263 | 39429 ft | 421 kts | 54° |
| 2026-04-29 13:22 | 58.18337 | 17.96792 | 39431 ft | 421 kts | 54° |
| 2026-04-29 13:22 | 58.21306 | 18.06287 | 39430 ft | 421 kts | 55° |
| 2026-04-29 13:23 | 58.24278 | 18.15870 | 39435 ft | 421 kts | 55° |
| 2026-04-29 13:23 | 58.27245 | 18.25476 | 39427 ft | 422 kts | 55° |
| 2026-04-29 13:24 | 58.30205 | 18.35098 | 39429 ft | 422 kts | 55° |
| 2026-04-29 13:24 | 58.32662 | 18.43109 | 39430 ft | 422 kts | 55° |
| 2026-04-29 13:25 | 58.35610 | 18.52759 | 39423 ft | 422 kts | 55° |
| 2026-04-29 13:25 | 58.40004 | 18.67217 | 39422 ft | 422 kts | 55° |
| 2026-04-29 13:26 | 58.42942 | 18.76934 | 39423 ft | 423 kts | 56° |
| 2026-04-29 13:26 | 58.45871 | 18.86664 | 39418 ft | 423 kts | 56° |
| 2026-04-29 13:27 | 58.49267 | 18.97996 | 39425 ft | 423 kts | 56° |
| 2026-04-29 13:27 | 58.51693 | 19.06123 | 39426 ft | 423 kts | 56° |
| 2026-04-29 13:28 | 58.54601 | 19.15906 | 39422 ft | 423 kts | 56° |
| 2026-04-29 13:28 | 58.57509 | 19.25727 | 39423 ft | 424 kts | 56° |
| 2026-04-29 13:29 | 58.60407 | 19.35556 | 39422 ft | 424 kts | 56° |
| 2026-04-29 13:29 | 58.63281 | 19.45347 | 39421 ft | 424 kts | 56° |
| 2026-04-29 13:30 | 58.66170 | 19.55229 | 39424 ft | 425 kts | 56° |
| 2026-04-29 13:30 | 58.69056 | 19.65146 | 39420 ft | 425 kts | 56° |
| 2026-04-29 13:31 | 58.72122 | 19.74813 | 39418 ft | 423 kts | 53° |
| 2026-04-29 13:31 | 58.75299 | 19.84348 | 39418 ft | 423 kts | 53° |
| 2026-04-29 13:32 | 58.78457 | 19.93841 | 39415 ft | 423 kts | 53° |
| 2026-04-29 13:32 | 58.81623 | 20.03394 | 39416 ft | 424 kts | 53° |
| 2026-04-29 13:33 | 58.84793 | 20.13003 | 39415 ft | 424 kts | 53° |
| 2026-04-29 13:33 | 58.87956 | 20.22628 | 39407 ft | 424 kts | 53° |
| 2026-04-29 13:34 | 58.91091 | 20.32207 | 39412 ft | 425 kts | 53° |
| 2026-04-29 13:34 | 58.94243 | 20.41877 | 39409 ft | 424 kts | 53° |
| 2026-04-29 13:35 | 58.97347 | 20.51450 | 39405 ft | 416 kts | 53° |
| 2026-04-29 13:35 | 59.00416 | 20.60940 | 39407 ft | 415 kts | 53° |
| 2026-04-29 13:36 | 59.03461 | 20.70393 | 39400 ft | 416 kts | 53° |
| 2026-04-29 13:36 | 59.06518 | 20.79925 | 39400 ft | 416 kts | 53° |
| 2026-04-29 13:37 | 59.09572 | 20.89486 | 39397 ft | 417 kts | 53° |
| 2026-04-29 13:37 | 59.12625 | 20.99087 | 39400 ft | 417 kts | 53° |
| 2026-04-29 13:38 | 59.15669 | 21.08694 | 39401 ft | 417 kts | 54° |
| 2026-04-29 13:38 | 59.18710 | 21.18334 | 39391 ft | 418 kts | 54° |
| 2026-04-29 13:39 | 59.21728 | 21.27941 | 39394 ft | 418 kts | 54° |
| 2026-04-29 13:39 | 59.24757 | 21.37623 | 39391 ft | 418 kts | 54° |
| 2026-04-29 13:40 | 59.27782 | 21.47332 | 39392 ft | 419 kts | 54° |
| 2026-04-29 13:40 | 59.30814 | 21.57104 | 39391 ft | 419 kts | 54° |
| 2026-04-29 13:41 | 59.32322 | 21.61979 | 39236 ft | 418 kts | 54° |
| 2026-04-29 13:41 | 59.33794 | 21.66755 | 38950 ft | 411 kts | 54° |
| 2026-04-29 13:41 | 59.35244 | 21.71475 | 38737 ft | 400 kts | 54° |
| 2026-04-29 13:41 | 59.36663 | 21.76099 | 38562 ft | 390 kts | 53° |
| 2026-04-29 13:42 | 59.38038 | 21.80589 | 38377 ft | 379 kts | 53° |
| 2026-04-29 13:42 | 59.39381 | 21.84978 | 38125 ft | 371 kts | 53° |
| 2026-04-29 13:42 | 59.40694 | 21.89273 | 37818 ft | 364 kts | 53° |
| 2026-04-29 13:42 | 59.41984 | 21.93503 | 37493 ft | 358 kts | 52° |
| 2026-04-29 13:43 | 59.43247 | 21.97649 | 37176 ft | 352 kts | 52° |
| 2026-04-29 13:43 | 59.44492 | 22.01746 | 36851 ft | 346 kts | 52° |
| 2026-04-29 13:43 | 59.45715 | 22.05776 | 36533 ft | 340 kts | 51° |
| 2026-04-29 13:43 | 59.46899 | 22.09683 | 36218 ft | 334 kts | 51° |
| 2026-04-29 13:44 | 59.48076 | 22.13577 | 35923 ft | 329 kts | 51° |
| 2026-04-29 13:44 | 59.49234 | 22.17413 | 35627 ft | 323 kts | 50° |
| 2026-04-29 13:44 | 59.50379 | 22.21207 | 35130 ft | 323 kts | 50° |
| 2026-04-29 13:44 | 59.51541 | 22.25048 | 34427 ft | 330 kts | 50° |
| 2026-04-29 13:45 | 59.52722 | 22.28957 | 33621 ft | 336 kts | 50° |
| 2026-04-29 13:45 | 59.53931 | 22.32972 | 32640 ft | 345 kts | 50° |
| 2026-04-29 13:45 | 59.55153 | 22.37035 | 31649 ft | 354 kts | 50° |
| 2026-04-29 13:45 | 59.56441 | 22.41336 | 30636 ft | 364 kts | 50° |
| 2026-04-29 13:46 | 59.57728 | 22.45645 | 29440 ft | 373 kts | 50° |
| 2026-04-29 13:46 | 59.59064 | 22.50125 | 28144 ft | 384 kts | 51° |
| 2026-04-29 13:46 | 59.60435 | 22.54735 | 26823 ft | 395 kts | 52° |
| 2026-04-29 13:46 | 59.61845 | 22.59488 | 25504 ft | 406 kts | 52° |
| 2026-04-29 13:47 | 59.63281 | 22.64344 | 24278 ft | 414 kts | 53° |
| 2026-04-29 13:47 | 59.64734 | 22.69276 | 23112 ft | 417 kts | 54° |
| 2026-04-29 13:47 | 59.66192 | 22.74239 | 22024 ft | 416 kts | 54° |
| 2026-04-29 13:47 | 59.67643 | 22.79188 | 21020 ft | 414 kts | 54° |
| 2026-04-29 13:48 | 59.69083 | 22.84104 | 20057 ft | 412 kts | 55° |
| 2026-04-29 13:48 | 59.70517 | 22.89009 | 19113 ft | 410 kts | 55° |
| 2026-04-29 13:48 | 59.71940 | 22.93883 | 18119 ft | 408 kts | 56° |
| 2026-04-29 13:48 | 59.73334 | 22.98667 | 17160 ft | 404 kts | 56° |
| 2026-04-29 13:49 | 59.74729 | 23.03465 | 16241 ft | 400 kts | 56° |
| 2026-04-29 13:49 | 59.76110 | 23.08224 | 15345 ft | 396 kts | 56° |
| 2026-04-29 13:49 | 59.77474 | 23.12932 | 14455 ft | 393 kts | 56° |
| 2026-04-29 13:49 | 59.78834 | 23.17636 | 13520 ft | 390 kts | 56° |
| 2026-04-29 13:50 | 59.80174 | 23.22282 | 12606 ft | 385 kts | 56° |
| 2026-04-29 13:50 | 59.81495 | 23.26870 | 11726 ft | 381 kts | 56° |
| 2026-04-29 13:50 | 59.82802 | 23.31418 | 10933 ft | 375 kts | 57° |
| 2026-04-29 13:50 | 59.84070 | 23.35847 | 10474 ft | 361 kts | 57° |
| 2026-04-29 13:51 | 59.85262 | 23.40024 | 10335 ft | 341 kts | 56° |
| 2026-04-29 13:51 | 59.86391 | 23.43992 | 10323 ft | 318 kts | 56° |
| 2026-04-29 13:51 | 59.87443 | 23.47694 | 10327 ft | 297 kts | 56° |
| 2026-04-29 13:51 | 59.88429 | 23.51160 | 10324 ft | 278 kts | 56° |
| 2026-04-29 13:52 | 59.89351 | 23.54408 | 10322 ft | 261 kts | 55° |
| 2026-04-29 13:52 | 59.90217 | 23.57457 | 10320 ft | 245 kts | 55° |
| 2026-04-29 13:52 | 59.91033 | 23.60335 | 10241 ft | 233 kts | 55° |
| 2026-04-29 13:52 | 59.91816 | 23.63092 | 10095 ft | 225 kts | 54° |
| 2026-04-29 13:53 | 59.92581 | 23.65782 | 9820 ft | 222 kts | 54° |
| 2026-04-29 13:53 | 59.93339 | 23.68450 | 9511 ft | 221 kts | 54° |
| 2026-04-29 13:53 | 59.94082 | 23.71067 | 9188 ft | 220 kts | 55° |
| 2026-04-29 13:53 | 59.94831 | 23.73717 | 8873 ft | 219 kts | 55° |
| 2026-04-29 13:54 | 59.95576 | 23.76355 | 8578 ft | 218 kts | 55° |
| 2026-04-29 13:54 | 59.96317 | 23.78987 | 8255 ft | 217 kts | 56° |
| 2026-04-29 13:54 | 59.97057 | 23.81618 | 7946 ft | 217 kts | 56° |
| 2026-04-29 13:54 | 59.97791 | 23.84234 | 7649 ft | 216 kts | 56° |
| 2026-04-29 13:55 | 59.98528 | 23.86862 | 7386 ft | 216 kts | 56° |
| 2026-04-29 13:55 | 59.99256 | 23.89464 | 7310 ft | 214 kts | 56° |
| 2026-04-29 13:55 | 59.99983 | 23.92065 | 7194 ft | 216 kts | 56° |
| 2026-04-29 13:55 | 60.00715 | 23.94681 | 6897 ft | 215 kts | 56° |
| 2026-04-29 13:56 | 60.01434 | 23.97257 | 6617 ft | 215 kts | 56° |
| 2026-04-29 13:56 | 60.02160 | 23.99862 | 6296 ft | 215 kts | 57° |
| 2026-04-29 13:56 | 60.02889 | 24.02478 | 5982 ft | 215 kts | 56° |
| 2026-04-29 13:56 | 60.03612 | 24.05082 | 5661 ft | 215 kts | 57° |
| 2026-04-29 13:57 | 60.04341 | 24.07705 | 5419 ft | 215 kts | 57° |
| 2026-04-29 13:57 | 60.05067 | 24.10316 | 5122 ft | 214 kts | 57° |
| 2026-04-29 13:57 | 60.05786 | 24.12914 | 5040 ft | 213 kts | 56° |
| 2026-04-29 13:57 | 60.06508 | 24.15518 | 5020 ft | 214 kts | 57° |
| 2026-04-29 13:58 | 60.07232 | 24.18136 | 5023 ft | 215 kts | 57° |
| 2026-04-29 13:58 | 60.07953 | 24.20748 | 5013 ft | 214 kts | 57° |
| 2026-04-29 13:58 | 60.08675 | 24.23363 | 5006 ft | 214 kts | 57° |
| 2026-04-29 13:58 | 60.09388 | 24.25951 | 4748 ft | 215 kts | 57° |
| 2026-04-29 13:59 | 60.10106 | 24.28564 | 4533 ft | 213 kts | 57° |
| 2026-04-29 13:59 | 60.10824 | 24.31172 | 4292 ft | 213 kts | 57° |
| 2026-04-29 13:59 | 60.11535 | 24.33755 | 4034 ft | 211 kts | 57° |
| 2026-04-29 13:59 | 60.12241 | 24.36329 | 3765 ft | 211 kts | 57° |
| 2026-04-29 14:00 | 60.12949 | 24.38916 | 3526 ft | 211 kts | 57° |
| 2026-04-29 14:00 | 60.13652 | 24.41490 | 3292 ft | 211 kts | 58° |
| 2026-04-29 14:00 | 60.14352 | 24.44055 | 3054 ft | 210 kts | 57° |
| 2026-04-29 14:00 | 60.15055 | 24.46624 | 2853 ft | 210 kts | 57° |
| 2026-04-29 14:01 | 60.15744 | 24.49145 | 2717 ft | 208 kts | 57° |
| 2026-04-29 14:01 | 60.16436 | 24.51677 | 2555 ft | 206 kts | 57° |
| 2026-04-29 14:01 | 60.17120 | 24.54201 | 2331 ft | 205 kts | 58° |
| 2026-04-29 14:01 | 60.17806 | 24.56715 | 2320 ft | 207 kts | 56° |
| 2026-04-29 14:02 | 60.18494 | 24.59244 | 2310 ft | 207 kts | 57° |
| 2026-04-29 14:02 | 60.19183 | 24.61785 | 2306 ft | 207 kts | 58° |
| 2026-04-29 14:02 | 60.19880 | 24.64310 | 2293 ft | 206 kts | 55° |
| 2026-04-29 14:02 | 60.20601 | 24.66709 | 2358 ft | 191 kts | 50° |
| 2026-04-29 14:03 | 60.21409 | 24.68686 | 2304 ft | 175 kts | 43° |
| 2026-04-29 14:03 | 60.22177 | 24.70388 | 2316 ft | 160 kts | 43° |
| 2026-04-29 14:03 | 60.22901 | 24.71965 | 2262 ft | 145 kts | 42° |
| 2026-04-29 14:03 | 60.23562 | 24.73429 | 2299 ft | 140 kts | 41° |
| 2026-04-29 14:04 | 60.24225 | 24.74891 | 2298 ft | 142 kts | 42° |
| 2026-04-29 14:04 | 60.24887 | 24.76357 | 2098 ft | 141 kts | 42° |
| 2026-04-29 14:04 | 60.25548 | 24.77811 | 1928 ft | 139 kts | 42° |
| 2026-04-29 14:04 | 60.26185 | 24.79239 | 2640 ft | 126 kts | 42° |
| 2026-04-29 14:05 | 60.26684 | 24.80463 | 3756 ft | 107 kts | 44° |
| 2026-04-29 14:05 | 60.27084 | 24.81706 | 4478 ft | 110 kts | 56° |
| 2026-04-29 14:05 | 60.27413 | 24.83393 | 4419 ft | 172 kts | 62° |
| 2026-04-29 14:05 | 60.28263 | 24.86110 | 3363 ft | 267 kts | 54° |
| 2026-04-29 14:06 | 60.29361 | 24.89247 | 3319 ft | 291 kts | 48° |
| 2026-04-29 14:06 | 60.30816 | 24.92336 | 3093 ft | 313 kts | 40° |
| 2026-04-29 14:06 | 60.32441 | 24.95535 | 2535 ft | 337 kts | 44° |